createdAt,value
2018-03-20T00:00:26.942Z,13.50
2018-03-20T00:01:26.929Z,12.90
2018-03-20T00:02:26.920Z,13.70
2018-03-20T00:03:26.910Z,16.00
2018-03-20T00:04:26.887Z,13.90
2018-03-20T00:05:26.877Z,13.90
2018-03-20T00:06:26.863Z,15.20
2018-03-20T00:07:26.849Z,13.40
2018-03-20T00:08:26.831Z,12.90
2018-03-20T00:09:26.819Z,13.30
2018-03-20T00:10:26.805Z,12.70
2018-03-20T00:11:26.790Z,15.00
2018-03-20T00:12:26.777Z,14.70
2018-03-20T00:13:26.763Z,14.60
2018-03-20T00:14:26.751Z,13.60
2018-03-20T00:15:26.734Z,15.60
2018-03-20T00:16:26.720Z,12.40
2018-03-20T00:17:26.708Z,15.00
2018-03-20T00:18:26.693Z,14.20
2018-03-20T00:19:26.681Z,12.90
2018-03-20T00:20:26.670Z,14.50
2018-03-20T00:21:26.654Z,13.30
2018-03-20T00:22:26.637Z,17.50
2018-03-20T00:23:26.623Z,12.80
2018-03-20T00:24:26.613Z,14.20
2018-03-20T00:25:26.599Z,12.20
2018-03-20T00:26:26.582Z,13.40
2018-03-20T00:27:26.566Z,14.90
2018-03-20T00:28:26.554Z,13.50
2018-03-20T00:29:26.539Z,17.00
2018-03-20T00:30:26.526Z,15.90
2018-03-20T00:31:26.511Z,14.10
2018-03-20T00:32:26.497Z,15.40
2018-03-20T00:33:26.484Z,14.60
2018-03-20T00:34:26.472Z,15.30
2018-03-20T00:35:26.458Z,19.80
2018-03-20T00:36:26.446Z,14.00
2018-03-20T00:37:26.427Z,15.70
2018-03-20T00:38:26.417Z,16.80
2018-03-20T00:39:26.401Z,16.50
2018-03-20T00:40:26.383Z,14.30
2018-03-20T00:41:26.369Z,13.30
2018-03-20T00:42:26.357Z,14.80
2018-03-20T00:43:26.342Z,15.80
2018-03-20T00:44:26.328Z,12.40
2018-03-20T00:45:26.315Z,13.60
2018-03-20T00:46:26.300Z,14.00
2018-03-20T00:47:26.284Z,13.00
2018-03-20T00:48:26.272Z,13.60
2018-03-20T00:49:26.282Z,19.60
2018-03-20T00:50:26.242Z,14.40
2018-03-20T00:51:26.228Z,15.30
2018-03-20T00:52:26.221Z,13.60
2018-03-20T00:53:26.204Z,13.40
2018-03-20T00:54:26.187Z,12.90
2018-03-20T00:55:26.171Z,13.20
2018-03-20T00:56:26.161Z,13.10
2018-03-20T00:57:26.147Z,16.10
2018-03-20T00:58:26.130Z,14.10
2018-03-20T00:59:26.114Z,15.20
2018-03-20T01:00:26.100Z,13.60
2018-03-20T01:01:26.087Z,14.70
2018-03-20T01:02:26.079Z,14.30
2018-03-20T01:03:26.058Z,14.80
2018-03-20T01:04:26.043Z,14.70
2018-03-20T01:05:26.030Z,13.80
2018-03-20T01:06:26.019Z,15.00
2018-03-20T01:07:26.004Z,15.20
2018-03-20T01:08:25.985Z,14.20
2018-03-20T01:09:25.972Z,13.70
2018-03-20T01:10:25.964Z,14.00
2018-03-20T01:11:25.946Z,13.70
2018-03-20T01:12:25.928Z,14.80
2018-03-20T01:13:25.915Z,15.40
2018-03-20T01:14:25.901Z,15.20
2018-03-20T01:15:25.884Z,15.80
2018-03-20T01:16:25.872Z,16.40
2018-03-20T01:17:25.857Z,16.70
2018-03-20T01:18:25.843Z,14.50
2018-03-20T01:19:25.827Z,17.60
2018-03-20T01:20:25.813Z,16.70
2018-03-20T01:21:25.800Z,15.50
2018-03-20T01:22:25.785Z,14.70
2018-03-20T01:23:25.771Z,16.70
2018-03-20T01:24:25.759Z,14.60
2018-03-20T01:25:25.745Z,15.50
2018-03-20T01:26:25.734Z,15.20
2018-03-20T01:27:25.712Z,14.90
2018-03-20T01:28:25.701Z,15.90
2018-03-20T01:29:25.691Z,15.90
2018-03-20T01:30:25.674Z,15.30
2018-03-20T01:31:25.653Z,15.10
2018-03-20T01:32:25.640Z,17.10
2018-03-20T01:33:25.625Z,15.40
2018-03-20T01:34:25.611Z,18.30
2018-03-20T01:35:25.596Z,14.00
2018-03-20T01:36:25.582Z,16.70
2018-03-20T01:37:25.566Z,14.40
2018-03-20T01:38:25.556Z,17.60
2018-03-20T01:39:25.540Z,14.10
2018-03-20T01:40:25.523Z,15.30
2018-03-20T01:41:25.552Z,16.80
2018-03-20T01:42:25.498Z,13.70
2018-03-20T01:43:25.483Z,15.40
2018-03-20T01:44:25.497Z,16.30
2018-03-20T01:45:25.450Z,14.10
2018-03-20T01:46:25.436Z,15.60
2018-03-20T01:47:25.422Z,15.40
2018-03-20T01:48:25.407Z,13.80
2018-03-20T01:49:25.393Z,17.10
2018-03-20T01:50:25.383Z,14.80
2018-03-20T01:51:25.366Z,15.30
2018-03-20T01:52:25.347Z,14.80
2018-03-20T01:53:25.340Z,14.90
2018-03-20T01:54:25.321Z,15.20
2018-03-20T01:55:25.306Z,14.90
2018-03-20T01:56:25.301Z,16.40
2018-03-20T01:57:25.277Z,14.10
2018-03-20T01:58:25.270Z,15.70
2018-03-20T01:59:25.247Z,15.30
2018-03-20T02:00:25.233Z,16.30
2018-03-20T02:01:25.217Z,15.90
2018-03-20T02:02:25.207Z,16.80
2018-03-20T02:03:25.190Z,15.90
2018-03-20T02:04:25.174Z,23.70
2018-03-20T02:05:25.158Z,17.10
2018-03-20T02:06:25.144Z,19.20
2018-03-20T02:07:25.135Z,16.70
2018-03-20T02:08:25.119Z,16.90
2018-03-20T02:09:25.110Z,16.70
2018-03-20T02:10:25.086Z,16.70
2018-03-20T02:11:25.072Z,18.60
2018-03-20T02:12:25.058Z,17.00
2018-03-20T02:13:25.047Z,15.10
2018-03-20T02:14:25.028Z,17.70
2018-03-20T02:15:25.014Z,19.00
2018-03-20T02:16:25.000Z,16.40
2018-03-20T02:17:24.985Z,16.40
2018-03-20T02:18:24.970Z,15.00
2018-03-20T02:19:24.958Z,16.70
2018-03-20T02:20:24.946Z,16.90
2018-03-20T02:21:24.931Z,15.80
2018-03-20T02:22:24.916Z,17.10
2018-03-20T02:23:24.901Z,19.90
2018-03-20T02:24:24.887Z,18.30
2018-03-20T02:25:24.870Z,17.50
2018-03-20T02:26:24.856Z,17.00
2018-03-20T02:27:24.841Z,18.40
2018-03-20T02:28:24.829Z,16.60
2018-03-20T02:29:24.813Z,17.30
2018-03-20T02:30:24.805Z,18.00
2018-03-20T02:31:24.785Z,20.10
2018-03-20T02:32:24.773Z,16.40
2018-03-20T02:33:24.759Z,18.10
2018-03-20T02:34:24.750Z,17.00
2018-03-20T02:35:24.736Z,18.30
2018-03-20T02:36:24.716Z,16.60
2018-03-20T02:37:24.703Z,17.80
2018-03-20T02:38:24.688Z,17.60
2018-03-20T02:39:24.683Z,18.20
2018-03-20T02:40:24.663Z,18.20
2018-03-20T02:41:24.656Z,15.90
2018-03-20T02:42:24.633Z,21.00
2018-03-20T02:43:24.624Z,14.80
2018-03-20T02:44:24.608Z,13.90
2018-03-20T02:45:24.593Z,18.20
2018-03-20T02:46:24.579Z,16.60
2018-03-20T02:47:24.565Z,19.70
2018-03-20T02:48:24.550Z,17.60
2018-03-20T02:49:24.538Z,16.50
2018-03-20T02:50:24.525Z,16.60
2018-03-20T02:51:24.510Z,15.00
2018-03-20T02:52:24.502Z,14.30
2018-03-20T02:53:24.487Z,18.20
2018-03-20T02:54:24.473Z,15.40
2018-03-20T02:55:24.457Z,15.40
2018-03-20T02:56:24.443Z,20.20
2018-03-20T02:57:24.432Z,16.70
2018-03-20T02:58:24.420Z,17.20
2018-03-20T02:59:24.405Z,16.20
2018-03-20T03:00:24.400Z,17.10
2018-03-20T03:01:24.380Z,14.70
2018-03-20T03:02:24.389Z,17.20
2018-03-20T03:03:24.352Z,14.50
2018-03-20T03:04:24.343Z,21.20
2018-03-20T03:05:24.328Z,15.30
2018-03-20T03:06:24.312Z,15.40
2018-03-20T03:07:24.311Z,18.90
2018-03-20T03:08:24.286Z,16.90
2018-03-20T03:09:24.273Z,19.20
2018-03-20T03:10:24.272Z,16.30
2018-03-20T03:11:24.246Z,18.40
2018-03-20T03:12:24.237Z,16.70
2018-03-20T03:13:24.219Z,19.30
2018-03-20T03:14:24.210Z,16.80
2018-03-20T03:15:24.196Z,15.10
2018-03-20T03:16:24.179Z,16.90
2018-03-20T03:17:24.167Z,16.40
2018-03-20T03:18:24.159Z,19.50
2018-03-20T03:19:24.146Z,22.90
2018-03-20T03:20:24.127Z,18.70
2018-03-20T03:21:24.117Z,21.40
2018-03-20T03:22:24.102Z,18.80
2018-03-20T03:23:24.088Z,17.50
2018-03-20T03:24:24.077Z,14.60
2018-03-20T03:25:24.067Z,16.30
2018-03-20T03:26:24.050Z,17.60
2018-03-20T03:27:24.037Z,19.00
2018-03-20T03:28:24.024Z,17.70
2018-03-20T03:29:24.012Z,18.60
2018-03-20T03:30:24.007Z,18.40
2018-03-20T03:31:23.986Z,21.70
2018-03-20T03:32:23.976Z,19.70
2018-03-20T03:33:23.963Z,14.30
2018-03-20T03:34:23.960Z,17.60
2018-03-20T03:35:23.941Z,20.50
2018-03-20T03:36:23.925Z,15.30
2018-03-20T03:37:23.913Z,15.20
2018-03-20T03:38:23.897Z,15.70
2018-03-20T03:39:23.884Z,17.90
2018-03-20T03:40:23.870Z,18.10
2018-03-20T03:41:23.858Z,16.90
2018-03-20T03:42:23.847Z,18.30
2018-03-20T03:43:23.833Z,19.10
2018-03-20T03:44:23.820Z,20.90
2018-03-20T03:45:23.808Z,20.10
2018-03-20T03:46:23.802Z,19.20
2018-03-20T03:47:23.786Z,19.90
2018-03-20T03:48:23.768Z,17.60
2018-03-20T03:49:23.758Z,18.70
2018-03-20T03:50:23.748Z,18.20
2018-03-20T03:51:23.737Z,19.00
2018-03-20T03:52:23.718Z,18.90
2018-03-20T03:53:23.706Z,17.90
2018-03-20T03:54:23.695Z,17.20
2018-03-20T03:55:23.686Z,17.90
2018-03-20T03:56:23.667Z,20.00
2018-03-20T03:57:23.655Z,20.10
2018-03-20T03:58:23.647Z,16.70
2018-03-20T03:59:23.633Z,16.90
2018-03-20T04:00:23.618Z,16.90
2018-03-20T04:01:23.656Z,15.80
2018-03-20T04:02:23.593Z,19.10
2018-03-20T04:03:23.580Z,16.10
2018-03-20T04:04:23.566Z,15.50
2018-03-20T04:05:23.554Z,15.30
2018-03-20T04:06:23.542Z,16.10
2018-03-20T04:07:23.530Z,18.40
2018-03-20T04:08:23.516Z,16.40
2018-03-20T04:09:23.503Z,16.10
2018-03-20T04:10:23.496Z,17.90
2018-03-20T04:11:23.486Z,18.20
2018-03-20T04:12:23.465Z,17.20
2018-03-20T04:13:23.461Z,14.90
2018-03-20T04:14:23.441Z,16.40
2018-03-20T04:15:23.430Z,17.10
2018-03-20T04:16:23.425Z,17.20
2018-03-20T04:17:23.407Z,18.10
2018-03-20T04:18:23.391Z,18.90
2018-03-20T04:19:23.380Z,16.50
2018-03-20T04:20:23.365Z,16.30
2018-03-20T04:21:23.353Z,16.40
2018-03-20T04:22:23.342Z,17.70
2018-03-20T04:23:23.327Z,16.80
2018-03-20T04:24:23.316Z,15.50
2018-03-20T04:25:23.303Z,16.70
2018-03-20T04:26:23.290Z,17.80
2018-03-20T04:27:23.278Z,16.00
2018-03-20T04:28:23.269Z,14.80
2018-03-20T04:29:23.258Z,15.90
2018-03-20T04:30:23.244Z,19.50
2018-03-20T04:31:23.231Z,14.70
2018-03-20T04:32:23.216Z,17.20
2018-03-20T04:33:23.203Z,15.20
2018-03-20T04:34:23.192Z,18.20
2018-03-20T04:35:23.178Z,15.00
2018-03-20T04:36:23.166Z,15.80
2018-03-20T04:37:23.153Z,16.20
2018-03-20T04:38:23.142Z,16.30
2018-03-20T04:39:23.127Z,17.80
2018-03-20T04:40:23.117Z,15.90
2018-03-20T04:41:23.106Z,18.70
2018-03-20T04:42:23.096Z,18.30
2018-03-20T04:43:23.085Z,16.50
2018-03-20T04:44:23.066Z,19.70
2018-03-20T04:45:23.053Z,18.80
2018-03-20T04:46:23.041Z,16.80
2018-03-20T04:47:23.027Z,16.30
2018-03-20T04:48:23.023Z,19.60
2018-03-20T04:49:23.010Z,19.00
2018-03-20T04:50:22.990Z,17.80
2018-03-20T04:51:22.979Z,17.40
2018-03-20T04:52:22.964Z,20.00
2018-03-20T04:53:22.953Z,16.20
2018-03-20T04:54:22.941Z,16.10
2018-03-20T04:55:22.928Z,16.20
2018-03-20T04:56:22.915Z,15.50
2018-03-20T04:57:22.902Z,16.30
2018-03-20T04:58:22.890Z,15.60
2018-03-20T04:59:22.875Z,16.50
2018-03-20T05:00:22.867Z,18.60
2018-03-20T05:01:22.855Z,18.90
2018-03-20T05:02:22.841Z,16.40
2018-03-20T05:03:22.826Z,17.70
2018-03-20T05:04:22.814Z,16.70
2018-03-20T05:05:22.800Z,17.40
2018-03-20T05:06:22.793Z,16.30
2018-03-20T05:07:22.780Z,18.30
2018-03-20T05:08:22.762Z,19.90
2018-03-20T05:09:22.750Z,17.30
2018-03-20T05:10:22.741Z,21.10
2018-03-20T05:11:22.728Z,18.10
2018-03-20T05:12:22.711Z,16.60
2018-03-20T05:13:22.700Z,16.90
2018-03-20T05:14:22.689Z,18.40
2018-03-20T05:15:22.674Z,19.20
2018-03-20T05:16:22.662Z,17.20
2018-03-20T05:17:22.650Z,17.80
2018-03-20T05:18:22.637Z,16.90
2018-03-20T05:19:22.625Z,19.10
2018-03-20T05:20:22.611Z,17.10
2018-03-20T05:21:22.599Z,18.40
2018-03-20T05:22:22.587Z,16.70
2018-03-20T05:23:22.574Z,17.60
2018-03-20T05:24:22.566Z,17.20
2018-03-20T05:25:22.554Z,18.10
2018-03-20T05:26:22.537Z,18.70
2018-03-20T05:27:22.523Z,21.20
2018-03-20T05:28:22.516Z,17.60
2018-03-20T05:29:22.502Z,22.60
2018-03-20T05:30:22.486Z,17.30
2018-03-20T05:31:22.473Z,17.60
2018-03-20T05:32:22.462Z,18.10
2018-03-20T05:33:22.450Z,18.60
2018-03-20T05:34:22.437Z,21.30
2018-03-20T05:35:22.423Z,20.20
2018-03-20T05:36:22.411Z,20.20
2018-03-20T05:37:22.399Z,17.70
2018-03-20T05:38:22.392Z,19.60
2018-03-20T05:39:22.377Z,18.70
2018-03-20T05:40:22.360Z,21.10
2018-03-20T05:41:22.347Z,23.70
2018-03-20T05:42:22.340Z,19.30
2018-03-20T05:43:22.326Z,24.20
2018-03-20T05:44:22.310Z,22.00
2018-03-20T05:45:22.297Z,20.90
2018-03-20T05:46:22.285Z,22.70
2018-03-20T05:47:22.273Z,22.10
2018-03-20T05:48:22.260Z,24.30
2018-03-20T05:49:22.248Z,23.60
2018-03-20T05:50:22.237Z,22.20
2018-03-20T05:51:22.222Z,19.90
2018-03-20T05:52:22.211Z,22.50
2018-03-20T05:53:22.198Z,22.10
2018-03-20T05:54:22.185Z,20.90
2018-03-20T05:55:22.171Z,20.30
2018-03-20T05:56:22.163Z,22.70
2018-03-20T05:57:22.150Z,21.50
2018-03-20T05:58:22.135Z,23.20
2018-03-20T05:59:22.121Z,21.60
2018-03-20T06:00:22.115Z,22.40
2018-03-20T06:01:22.101Z,21.00
2018-03-20T06:02:22.085Z,24.10
2018-03-20T06:03:22.071Z,22.10
2018-03-20T06:04:22.059Z,19.80
2018-03-20T06:05:22.047Z,27.10
2018-03-20T06:06:22.035Z,22.60
2018-03-20T06:07:22.020Z,32.20
2018-03-20T06:08:22.013Z,22.60
2018-03-20T06:09:22.000Z,22.90
2018-03-20T06:10:21.985Z,25.30
2018-03-20T06:11:21.971Z,25.60
2018-03-20T06:12:21.958Z,23.80
2018-03-20T06:13:21.948Z,27.00
2018-03-20T06:14:21.934Z,25.20
2018-03-20T06:15:21.920Z,21.20
2018-03-20T06:16:21.909Z,22.70
2018-03-20T06:17:21.897Z,26.40
2018-03-20T06:18:21.885Z,22.80
2018-03-20T06:19:21.871Z,25.70
2018-03-20T06:20:21.864Z,19.60
2018-03-20T06:21:21.851Z,19.90
2018-03-20T06:22:21.839Z,26.80
2018-03-20T06:23:21.826Z,20.70
2018-03-20T06:24:21.809Z,19.50
2018-03-20T06:25:21.798Z,26.10
2018-03-20T06:26:21.786Z,22.10
2018-03-20T06:27:21.773Z,20.80
2018-03-20T06:28:21.784Z,23.30
2018-03-20T06:29:21.749Z,24.80
2018-03-20T06:30:21.736Z,28.60
2018-03-20T06:31:21.729Z,23.50
2018-03-20T06:32:21.712Z,22.60
2018-03-20T06:33:21.699Z,21.40
2018-03-20T06:34:21.690Z,25.20
2018-03-20T06:35:21.677Z,21.40
2018-03-20T06:36:21.661Z,22.30
2018-03-20T06:37:21.650Z,26.30
2018-03-20T06:38:21.640Z,26.50
2018-03-20T06:39:21.625Z,26.60
2018-03-20T06:40:21.617Z,28.50
2018-03-20T06:41:21.606Z,25.80
2018-03-20T06:42:21.590Z,30.00
2018-03-20T06:43:21.576Z,25.20
2018-03-20T06:44:21.565Z,21.10
2018-03-20T06:45:21.552Z,25.70
2018-03-20T06:46:21.540Z,22.90
2018-03-20T06:47:21.539Z,21.90
2018-03-20T06:48:21.518Z,25.60
2018-03-20T06:49:21.504Z,24.90
2018-03-20T06:50:21.492Z,29.30
2018-03-20T06:51:21.485Z,25.70
2018-03-20T06:52:21.471Z,23.70
2018-03-20T06:53:21.459Z,26.80
2018-03-20T06:54:21.448Z,28.00
2018-03-20T06:55:21.435Z,26.00
2018-03-20T06:56:21.420Z,27.80
2018-03-20T06:57:21.408Z,22.20
2018-03-20T06:58:21.396Z,33.00
2018-03-20T06:59:21.433Z,32.10
2018-03-20T07:00:21.373Z,26.40
2018-03-20T07:01:21.361Z,24.60
2018-03-20T07:02:21.351Z,30.80
2018-03-20T07:03:21.338Z,26.70
2018-03-20T07:04:21.328Z,24.00
2018-03-20T07:05:21.315Z,23.20
2018-03-20T07:06:21.306Z,24.50
2018-03-20T07:07:21.294Z,22.60
2018-03-20T07:08:21.279Z,27.10
2018-03-20T07:09:21.267Z,26.00
2018-03-20T07:10:21.258Z,25.10
2018-03-20T07:11:21.245Z,26.30
2018-03-20T07:12:21.233Z,22.50
2018-03-20T07:13:21.221Z,26.40
2018-03-20T07:14:21.214Z,29.20
2018-03-20T07:15:21.203Z,26.50
2018-03-20T07:16:21.187Z,23.70
2018-03-20T07:17:21.176Z,28.20
2018-03-20T07:18:21.168Z,31.30
2018-03-20T07:19:21.156Z,23.80
2018-03-20T07:20:21.142Z,23.80
2018-03-20T07:21:21.139Z,26.10
2018-03-20T07:22:21.119Z,25.50
2018-03-20T07:23:21.107Z,29.70
2018-03-20T07:24:21.098Z,29.10
2018-03-20T07:25:21.085Z,27.60
2018-03-20T07:26:21.075Z,30.50
2018-03-20T07:27:21.064Z,27.80
2018-03-20T07:28:21.077Z,25.40
2018-03-20T07:29:21.041Z,27.10
2018-03-20T07:30:21.030Z,27.30
2018-03-20T07:31:21.019Z,28.70
2018-03-20T07:32:21.018Z,27.90
2018-03-20T07:33:21.001Z,26.40
2018-03-20T07:34:20.987Z,26.80
2018-03-20T07:35:20.976Z,34.00
2018-03-20T07:36:20.968Z,41.10
2018-03-20T07:37:20.960Z,31.80
2018-03-20T07:38:20.944Z,25.90
2018-03-20T07:39:20.936Z,32.80
2018-03-20T07:40:20.922Z,27.40
2018-03-20T07:41:20.910Z,31.10
2018-03-20T07:42:20.901Z,34.20
2018-03-20T07:43:20.890Z,31.30
2018-03-20T07:44:20.878Z,30.60
2018-03-20T07:45:20.869Z,29.30
2018-03-20T07:46:20.865Z,32.40
2018-03-20T07:47:20.856Z,35.40
2018-03-20T07:48:20.836Z,36.00
2018-03-20T07:49:20.826Z,30.50
2018-03-20T07:50:20.821Z,34.10
2018-03-20T07:51:20.809Z,35.90
2018-03-20T07:52:20.794Z,33.90
2018-03-20T07:53:20.784Z,35.90
2018-03-20T07:54:20.775Z,39.10
2018-03-20T07:55:20.763Z,33.80
2018-03-20T07:56:20.752Z,37.40
2018-03-20T07:57:20.741Z,32.40
2018-03-20T07:58:20.732Z,40.30
2018-03-20T07:59:20.720Z,46.40
2018-03-20T08:00:20.709Z,43.20
2018-03-20T08:01:20.700Z,46.90
2018-03-20T08:02:20.691Z,47.50
2018-03-20T08:03:20.678Z,40.10
2018-03-20T08:04:20.674Z,36.70
2018-03-20T08:05:20.662Z,36.90
2018-03-20T08:06:20.648Z,37.50
2018-03-20T08:07:20.639Z,42.40
2018-03-20T08:08:20.632Z,42.80
2018-03-20T08:09:20.623Z,37.80
2018-03-20T08:10:20.610Z,35.90
2018-03-20T08:11:20.600Z,36.20
2018-03-20T08:12:20.592Z,36.80
2018-03-20T08:13:20.585Z,38.30
2018-03-20T08:14:20.577Z,38.80
2018-03-20T08:15:20.569Z,35.50
2018-03-20T08:16:20.568Z,37.80
2018-03-20T08:17:20.558Z,37.80
2018-03-20T08:18:20.548Z,35.70
2018-03-20T08:19:20.546Z,41.00
2018-03-20T08:20:20.533Z,38.10
2018-03-20T08:21:20.526Z,34.00
2018-03-20T08:22:20.520Z,46.40
2018-03-20T08:23:20.512Z,37.90
2018-03-20T08:24:20.507Z,37.10
2018-03-20T08:25:20.499Z,36.80
2018-03-20T08:26:20.491Z,37.80
2018-03-20T08:27:20.483Z,38.90
2018-03-20T08:28:20.481Z,33.80
2018-03-20T08:29:20.508Z,39.50
2018-03-20T08:30:20.467Z,35.80
2018-03-20T08:31:20.460Z,38.10
2018-03-20T08:32:20.446Z,36.40
2018-03-20T08:33:20.439Z,40.00
2018-03-20T08:34:20.436Z,36.80
2018-03-20T08:35:20.424Z,40.00
2018-03-20T08:36:20.416Z,36.70
2018-03-20T08:37:20.410Z,39.50
2018-03-20T08:38:20.401Z,34.00
2018-03-20T08:39:20.391Z,33.80
2018-03-20T08:40:20.384Z,34.50
2018-03-20T08:41:20.377Z,39.90
2018-03-20T08:42:20.372Z,32.40
2018-03-20T08:43:20.364Z,31.60
2018-03-20T08:44:20.362Z,30.70
2018-03-20T08:45:20.345Z,32.40
2018-03-20T08:46:20.337Z,28.90
2018-03-20T08:47:20.329Z,31.60
2018-03-20T08:48:20.326Z,28.50
2018-03-20T08:49:20.323Z,27.00
2018-03-20T08:50:20.309Z,29.00
2018-03-20T08:51:20.303Z,31.50
2018-03-20T08:52:20.296Z,26.80
2018-03-20T08:53:20.290Z,29.50
2018-03-20T08:54:20.284Z,25.60
2018-03-20T08:55:20.281Z,21.20
2018-03-20T08:56:20.272Z,24.70
2018-03-20T08:57:20.269Z,27.90
2018-03-20T08:58:20.262Z,27.10
2018-03-20T08:59:20.254Z,26.80
2018-03-20T09:00:20.253Z,26.40
2018-03-20T09:01:20.248Z,27.60
2018-03-20T09:02:20.243Z,25.60
2018-03-20T09:03:20.237Z,27.60
2018-03-20T09:04:20.228Z,28.10
2018-03-20T09:05:20.242Z,27.10
2018-03-20T09:06:20.227Z,24.70
2018-03-20T09:07:20.216Z,24.90
2018-03-20T09:08:20.214Z,28.00
2018-03-20T09:09:20.203Z,23.10
2018-03-20T09:10:20.198Z,23.50
2018-03-20T09:11:20.192Z,21.40
2018-03-20T09:12:20.230Z,22.60
2018-03-20T09:13:20.183Z,19.00
2018-03-20T09:14:20.185Z,22.00
2018-03-20T09:15:20.176Z,20.80
2018-03-20T09:16:20.168Z,20.90
2018-03-20T09:17:20.164Z,22.00
2018-03-20T09:18:20.160Z,22.20
2018-03-20T09:19:20.157Z,20.20
2018-03-20T09:20:20.157Z,20.70
2018-03-20T09:21:20.153Z,21.60
2018-03-20T09:22:20.148Z,22.60
2018-03-20T09:23:20.144Z,18.70
2018-03-20T09:24:20.147Z,20.60
2018-03-20T09:25:20.138Z,17.00
2018-03-20T09:26:20.137Z,18.70
2018-03-20T09:27:20.132Z,19.30
2018-03-20T09:28:20.131Z,18.30
2018-03-20T09:29:20.130Z,17.20
2018-03-20T09:30:20.128Z,17.10
2018-03-20T09:31:20.125Z,16.70
2018-03-20T09:32:20.126Z,17.30
2018-03-20T09:33:20.124Z,17.10
2018-03-20T09:34:20.124Z,17.40
2018-03-20T09:35:20.120Z,16.80
2018-03-20T09:36:20.115Z,19.20
2018-03-20T09:37:20.114Z,16.00
2018-03-20T09:38:20.114Z,16.10
2018-03-20T09:39:20.112Z,14.80
2018-03-20T09:40:20.112Z,17.20
2018-03-20T09:41:20.114Z,14.00
2018-03-20T09:42:20.114Z,14.60
2018-03-20T09:43:20.150Z,14.00
2018-03-20T09:44:20.119Z,14.00
2018-03-20T09:45:20.120Z,13.70
2018-03-20T09:46:20.127Z,13.50
2018-03-20T09:47:20.130Z,13.90
2018-03-20T09:48:20.130Z,14.30
2018-03-20T09:49:20.136Z,12.90
2018-03-20T09:50:20.139Z,12.50
2018-03-20T09:51:20.143Z,12.10
2018-03-20T09:52:20.152Z,13.40
2018-03-20T09:53:20.157Z,12.70
2018-03-20T09:54:20.160Z,12.70
2018-03-20T09:55:20.164Z,13.40
2018-03-20T09:56:20.170Z,13.30
2018-03-20T09:57:20.177Z,13.40
2018-03-20T09:58:20.182Z,14.40
2018-03-20T09:59:20.186Z,14.60
2018-03-20T10:00:20.193Z,15.20
2018-03-20T10:01:20.197Z,13.90
2018-03-20T10:02:20.203Z,14.20
2018-03-20T10:03:20.206Z,14.10
2018-03-20T10:04:20.215Z,13.90
2018-03-20T10:05:20.220Z,13.80
2018-03-20T10:06:20.224Z,13.30
2018-03-20T10:07:20.227Z,14.00
2018-03-20T10:08:20.228Z,12.90
2018-03-20T10:09:20.235Z,12.30
2018-03-20T10:10:20.239Z,13.50
2018-03-20T10:11:20.243Z,13.10
2018-03-20T10:12:20.255Z,13.10
2018-03-20T10:13:20.255Z,13.60
2018-03-20T10:14:20.260Z,13.80
2018-03-20T10:15:20.266Z,12.40
2018-03-20T10:16:20.272Z,12.00
2018-03-20T10:17:20.278Z,12.50
2018-03-20T10:18:20.288Z,12.10
2018-03-20T10:19:20.294Z,11.80
2018-03-20T10:20:20.304Z,11.40
2018-03-20T10:21:20.306Z,10.90
2018-03-20T10:22:20.312Z,11.80
2018-03-20T10:23:20.318Z,11.90
2018-03-20T10:24:20.326Z,11.40
2018-03-20T10:25:20.333Z,11.80
2018-03-20T10:26:20.395Z,11.50
2018-03-20T10:27:20.350Z,11.70
2018-03-20T10:28:20.353Z,12.10
2018-03-20T10:29:20.360Z,12.10
2018-03-20T10:30:20.372Z,12.20
2018-03-20T10:31:20.379Z,11.90
2018-03-20T10:32:20.382Z,10.90
2018-03-20T10:33:20.391Z,10.60
2018-03-20T10:34:20.399Z,11.30
2018-03-20T10:35:20.409Z,11.00
2018-03-20T10:36:20.416Z,11.10
2018-03-20T10:37:20.423Z,11.30
2018-03-20T10:38:20.443Z,11.70
2018-03-20T10:39:20.438Z,11.80
2018-03-20T10:40:20.448Z,11.10
2018-03-20T10:41:20.456Z,11.80
2018-03-20T10:42:20.464Z,11.40
2018-03-20T10:43:20.475Z,11.70
2018-03-20T10:44:20.484Z,12.10
2018-03-20T10:45:20.492Z,12.90
2018-03-20T10:46:20.498Z,13.20
2018-03-20T10:47:20.503Z,12.90
2018-03-20T10:48:20.517Z,13.40
2018-03-20T10:49:20.521Z,13.30
2018-03-20T10:50:20.530Z,12.90
2018-03-20T10:51:20.531Z,13.00
2018-03-20T10:52:20.576Z,12.90
2018-03-20T10:53:20.548Z,12.60
2018-03-20T10:54:20.554Z,12.20
2018-03-20T10:55:20.559Z,12.70
2018-03-20T10:56:20.566Z,12.50
2018-03-20T10:57:20.572Z,12.50
2018-03-20T10:58:20.583Z,12.00
2018-03-20T10:59:20.593Z,12.10
2018-03-20T11:00:20.592Z,12.30
2018-03-20T11:01:20.600Z,12.40
2018-03-20T11:02:20.611Z,12.00
2018-03-20T11:03:20.617Z,11.60
2018-03-20T11:04:20.621Z,11.50
2018-03-20T11:05:20.628Z,11.70
2018-03-20T11:06:20.636Z,11.60
2018-03-20T11:07:20.644Z,12.00
2018-03-20T11:08:20.652Z,12.00
2018-03-20T11:09:20.660Z,12.10
2018-03-20T11:10:20.666Z,12.30
2018-03-20T11:11:20.673Z,12.40
2018-03-20T11:12:20.680Z,12.40
2018-03-20T11:13:20.691Z,12.70
2018-03-20T11:14:20.697Z,12.60
2018-03-20T11:15:20.708Z,12.60
2018-03-20T11:16:20.714Z,12.10
2018-03-20T11:17:20.722Z,12.00
2018-03-20T11:18:20.727Z,12.40
2018-03-20T11:19:20.733Z,12.50
2018-03-20T11:20:20.744Z,11.40
2018-03-20T11:21:20.752Z,11.90
2018-03-20T11:22:20.756Z,12.10
2018-03-20T11:23:20.763Z,11.80
2018-03-20T11:24:20.771Z,11.80
2018-03-20T11:25:20.778Z,12.40
2018-03-20T11:26:20.790Z,12.40
2018-03-20T11:27:20.790Z,12.70
2018-03-20T11:28:20.806Z,13.10
2018-03-20T11:29:20.807Z,12.50
2018-03-20T11:30:20.810Z,12.20
2018-03-20T11:31:20.817Z,12.10
2018-03-20T11:32:20.822Z,11.70
2018-03-20T11:33:20.829Z,12.60
2018-03-20T11:34:20.834Z,12.60
2018-03-20T11:35:20.839Z,12.10
2018-03-20T11:36:20.846Z,12.30
2018-03-20T11:37:20.852Z,12.20
2018-03-20T11:38:20.855Z,12.10
2018-03-20T11:39:20.859Z,12.10
2018-03-20T11:40:20.868Z,11.90
2018-03-20T11:41:20.871Z,12.20
2018-03-20T11:42:20.876Z,11.80
2018-03-20T11:43:20.878Z,12.00
2018-03-20T11:44:20.875Z,12.00
2018-03-20T11:45:20.878Z,12.00
2018-03-20T11:46:20.881Z,12.40
2018-03-20T11:47:20.882Z,12.50
2018-03-20T11:48:20.883Z,11.90
2018-03-20T11:49:20.883Z,11.70
2018-03-20T11:50:20.886Z,11.80
2018-03-20T11:51:20.883Z,10.00
2018-03-20T11:52:20.885Z,11.60
2018-03-20T11:53:20.883Z,12.00
2018-03-20T11:54:20.886Z,11.60
2018-03-20T11:55:20.883Z,11.50
2018-03-20T11:56:20.878Z,10.50
2018-03-20T11:57:20.877Z,11.60
2018-03-20T11:58:20.878Z,10.00
2018-03-20T11:59:20.873Z,10.40
2018-03-20T12:00:20.880Z,10.70
2018-03-20T12:01:20.873Z,10.60
2018-03-20T12:02:20.866Z,11.20
2018-03-20T12:03:20.865Z,9.90
2018-03-20T12:04:20.860Z,10.20
2018-03-20T12:05:20.861Z,11.10
2018-03-20T12:06:20.854Z,10.90
2018-03-20T12:07:20.851Z,10.40
2018-03-20T12:08:20.848Z,9.60
2018-03-20T12:09:20.843Z,10.70
2018-03-20T12:10:20.851Z,9.70
2018-03-20T12:11:20.836Z,9.60
2018-03-20T12:12:20.836Z,9.60
2018-03-20T12:13:20.831Z,9.60
2018-03-20T12:14:20.828Z,9.60
2018-03-20T12:15:20.822Z,10.60
2018-03-20T12:16:20.815Z,10.40
2018-03-20T12:17:20.810Z,11.20
2018-03-20T12:18:20.807Z,10.10
2018-03-20T12:19:20.802Z,10.50
2018-03-20T12:20:20.798Z,10.50
2018-03-20T12:21:20.793Z,10.00
2018-03-20T12:22:20.789Z,10.90
2018-03-20T12:23:20.782Z,10.50
2018-03-20T12:24:20.778Z,10.40
2018-03-20T12:25:20.821Z,10.10
2018-03-20T12:26:20.772Z,10.50
2018-03-20T12:27:20.767Z,10.80
2018-03-20T12:28:20.763Z,9.50
2018-03-20T12:29:20.758Z,9.70
2018-03-20T12:30:20.749Z,10.70
2018-03-20T12:31:20.743Z,10.40
2018-03-20T12:32:20.738Z,10.50
2018-03-20T12:33:20.734Z,10.50
2018-03-20T12:34:20.733Z,10.10
2018-03-20T12:35:20.726Z,10.00
2018-03-20T12:36:20.718Z,8.90
2018-03-20T12:37:20.712Z,9.10
2018-03-20T12:38:20.711Z,10.40
2018-03-20T12:39:20.706Z,10.00
2018-03-20T12:40:20.697Z,10.30
2018-03-20T12:41:20.692Z,10.20
2018-03-20T12:42:20.688Z,9.90
2018-03-20T12:43:20.682Z,10.10
2018-03-20T12:44:20.676Z,8.90
2018-03-20T12:45:20.673Z,9.60
2018-03-20T12:46:20.667Z,9.20
2018-03-20T12:47:20.663Z,9.30
2018-03-20T12:48:20.656Z,9.80
2018-03-20T12:49:20.650Z,9.20
2018-03-20T12:50:20.644Z,9.70
2018-03-20T12:51:20.639Z,9.50
2018-03-20T12:52:20.638Z,9.10
2018-03-20T12:53:20.631Z,9.20